Historique des mesures à Cassis (13260), France
Quotidien Résumé Juin 1, 2021 Unités:  US    Métrique   Métrique/US
Quotidien Hebdomadaire Mensuel Annuel
  Maximum: Minimum: Moyenne:
Température: 78.4 °F 61.5 °F 69.6 °F
Point de rosée: 65.3 °F 50.9 °F 58.1 °F
Humidité: 78% 55% 67%
Vitesse du vent: 4.5mph 0mph 1.7mph
Rafales: 10.7mph - -
Vent- - SW
Pression: 30.1 in 30 in -
Précipitations: 0.18 in    
Historical Graphs
 
 
Mesures pour : Juin 1, 2021
Heure Temperature Point de rosée Pression Vent Vitesse du vent Rafales Humidité Pluie (par heure)
00:11 65.1 °F 50.9 °F 30.1 in WNW 1.4 mph 2.5 mph 60% 0 in
01:11 65.5 °F 51.3 °F 30.1 in NNW 4.5 mph 7 mph 60% 0 in
02:12 65.8 °F 52 °F 30.1 in Calm   3.4 mph 61% 0 in
03:11 64 °F 51.6 °F 30.1 in WNW 2.2 mph 2.5 mph 64% 0 in
04:11 62.4 °F 51.8 °F 30.1 in NW 2.9 mph 3.4 mph 68% 0 in
05:11 61.5 °F 52.2 °F 30.1 in NW 2.9 mph 3.4 mph 71% 0 in
06:11 61.7 °F 53.4 °F 30.1 in NW 2.2 mph 3.4 mph 74% 0 in
07:11 62.2 °F 54.1 °F 30.1 in WNW 2 mph 2 mph 75% 0 in
08:11 63 °F 55.9 °F 30.1 in NW 2 mph 2.9 mph 78% 0 in
09:11 67.6 °F 59 °F 30.1 in Calm     74% 0 in
10:11 70 °F 58.5 °F 30.1 in ESE 1.1 mph 2 mph 67% 0 in
11:11 72.9 °F 59.9 °F 30.1 in Calm   7.8 mph 64% 0 in
12:11 75.6 °F 60.8 °F 30.1 in South 2.5 mph 8.9 mph 60% 0 in
13:11 77.4 °F 61.3 °F 30.1 in SSE 1.6 mph 6.3 mph 58% 0 in
14:11 77.9 °F 61 °F 30 in SE 2.5 mph 7 mph 56% 0 in
15:11 78.3 °F 60.8 °F 30 in ESE 2.5 mph 10.7 mph 55% 0 in
16:11 78.4 °F 63.5 °F 30 in SSW 3.1 mph 3.6 mph 60% 0 in
17:11 77 °F 65.3 °F 30 in Calm   5.6 mph 67% 0 in
18:11 74.8 °F 64 °F 30 in ESE 2 mph 3.8 mph 69% 0 in
19:11 72.3 °F 63.1 °F 30 in South 1.4 mph 4.5 mph 73% 0.18 in
20:11 70.7 °F 62.8 °F 30 in Calm     76% 0 in
21:11 69.8 °F 61.5 °F 30 in Calm   0.9 mph 75% 0 in
22:11 68.5 °F 60.3 °F 30 in NNW 3.1 mph 5.2 mph 75% 0 in
23:11 66.7 °F 59.4 °F 30 in Calm     77% 0 in
Observations météo à CASSIS
WU-History script by Weather Underground - 2 mb